createdAt,value
2018-03-02T00:11:05.796Z,4.1
2018-03-02T00:27:50.835Z,4.1
2018-03-02T00:44:35.931Z,4.1
2018-03-02T01:01:20.887Z,4.0
2018-03-02T01:18:06.553Z,4.0
2018-03-02T01:34:51.202Z,4.0
2018-03-02T01:51:36.491Z,4.0
2018-03-02T02:08:21.693Z,4.0
2018-03-02T02:25:06.740Z,4.0
2018-03-02T02:41:52.260Z,4.0
2018-03-02T02:58:37.084Z,4.0
2018-03-02T03:15:22.669Z,3.9
2018-03-02T03:32:07.612Z,3.9
2018-03-02T03:48:52.016Z,3.9
2018-03-02T04:05:37.161Z,3.9
2018-03-02T04:22:22.274Z,3.9
2018-03-02T04:39:07.017Z,3.9
2018-03-02T04:55:52.533Z,3.9
2018-03-02T05:12:36.962Z,3.9
2018-03-02T05:29:21.958Z,3.9
2018-03-02T05:46:06.648Z,3.9
2018-03-02T06:02:51.462Z,3.9
2018-03-02T06:19:36.804Z,3.8
2018-03-02T06:36:21.127Z,3.8
2018-03-02T06:53:06.230Z,3.9
2018-03-02T07:09:51.099Z,3.9
2018-03-02T07:26:38.280Z,4.0
2018-03-02T07:43:21.322Z,4.1
2018-03-02T08:00:06.685Z,4.2
2018-03-02T08:16:53.597Z,4.3
2018-03-02T08:33:37.966Z,4.5
2018-03-02T08:50:23.627Z,4.5
2018-03-02T09:07:08.452Z,4.5
2018-03-02T09:23:53.682Z,4.5
2018-03-02T09:40:37.651Z,4.5
2018-03-02T09:57:22.780Z,4.6
2018-03-02T10:14:07.932Z,4.6
2018-03-02T10:30:53.606Z,4.6
2018-03-02T10:47:39.271Z,4.6
2018-03-02T11:04:25.453Z,4.6
2018-03-02T11:21:10.879Z,4.6
2018-03-02T11:37:56.631Z,4.6
2018-03-02T11:54:43.581Z,4.6
2018-03-02T12:11:29.983Z,4.6
2018-03-02T12:28:17.185Z,4.6
2018-03-02T12:45:04.499Z,4.6
2018-03-02T13:01:52.002Z,4.6
2018-03-02T13:18:39.645Z,4.6
2018-03-02T13:35:24.989Z,4.6
2018-03-02T13:52:12.604Z,4.6
2018-03-02T14:09:00.644Z,4.6
2018-03-02T14:25:46.764Z,4.6
2018-03-02T14:42:33.772Z,4.5
2018-03-02T14:59:21.199Z,4.5
2018-03-02T15:16:08.673Z,4.5
2018-03-02T15:32:55.106Z,4.5
2018-03-02T15:49:42.299Z,4.5
2018-03-02T16:06:29.583Z,4.5
2018-03-02T16:23:16.109Z,4.4
2018-03-02T16:40:04.201Z,4.4
2018-03-02T16:56:50.363Z,4.4
2018-03-02T17:13:37.323Z,4.4
2018-03-02T17:30:24.629Z,4.4
2018-03-02T17:47:10.560Z,4.3
2018-03-02T18:03:58.646Z,4.3
2018-03-02T18:20:44.726Z,4.3
2018-03-02T18:37:31.624Z,4.3
2018-03-02T18:54:18.565Z,4.3
2018-03-02T19:11:04.609Z,4.2
2018-03-02T19:27:51.035Z,4.2
2018-03-02T19:44:37.176Z,4.2
2018-03-02T20:01:24.098Z,4.2
2018-03-02T20:18:09.557Z,4.2
2018-03-02T20:34:56.039Z,4.2
2018-03-02T20:51:41.725Z,4.2
2018-03-02T21:08:27.801Z,4.2
2018-03-02T21:25:13.390Z,4.2
2018-03-02T21:41:59.371Z,4.2
2018-03-02T21:58:45.638Z,4.1
2018-03-02T22:15:32.382Z,4.1
2018-03-02T22:32:18.413Z,4.1
2018-03-02T22:49:04.621Z,4.1
2018-03-02T23:05:51.086Z,4.1
2018-03-02T23:22:37.140Z,4.1
2018-03-02T23:39:22.627Z,4.1
2018-03-02T23:56:09.312Z,4.1
